WetterOnline ( https://www.wetteronline.de )

Wetter aktuell Berus

Aktuelles Wetter: Berus (367m)

6-stündlich | Neueste Meldungen
Ortszeit Temperatur Wetter
Do, 05.12. 13:00 -1.5° C bedeckt
Do, 05.12. 7:00 -3.1° C Nebel
Do, 05.12. 1:00 -0.8° C wolkenlos
Mi, 04.12. 19:00 1.1° C wolkenlos
Mi, 04.12. 13:00 3.1° C wolkenlos
Mi, 04.12. 7:00 -1.0° C wolkenlos
Mi, 04.12. 1:00 0.3° C wolkig
Di, 03.12. 19:00 2.8° C wolkenlos
Ortszeit Temperatur Wetter
Do, 05.12. 15:00 1.0° C wolkenlos
Do, 05.12. 14:50 1.0° C wolkenlos
Do, 05.12. 14:40 1.2° C wolkenlos
Do, 05.12. 14:30 0.9° C wolkenlos
Do, 05.12. 14:20 0.9° C wolkenlos
Do, 05.12. 14:10 0.5° C wolkenlos
Do, 05.12. 14:00 -0.2° C leicht bewölkt
Do, 05.12. 13:30 -1.4° C bedeckt
Do, 05.12. 13:00 -1.5° C bedeckt
Do, 05.12. 12:30 -0.9° C wolkig
Do, 05.12. 12:00 -2.4° C Nebel
Do, 05.12. 11:30 -0.4° C fast wolkenlos
Ortszeit Relative Feuchte Sichtweite
Do, 05.12. 13:00 91% 2.0 km
Do, 05.12. 7:00 96% 0.3 km
Do, 05.12. 1:00 92% 9 km
Mi, 04.12. 19:00 82% 25 km
Mi, 04.12. 13:00 72% 27 km
Mi, 04.12. 7:00 96% 3.7 km
Mi, 04.12. 1:00 98% 1.0 km
Di, 03.12. 19:00 90% 24 km
Ortszeit Relative Feuchte Sichtweite
Do, 05.12. 15:00 84% 7 km
Do, 05.12. 14:50 84% -
Do, 05.12. 14:40 83% -
Do, 05.12. 14:30 83% 7 km
Do, 05.12. 14:20 83% -
Do, 05.12. 14:10 85% -
Do, 05.12. 14:00 86% 6 km
Do, 05.12. 13:30 93% 1.3 km
Do, 05.12. 13:00 91% 2.0 km
Do, 05.12. 12:30 90% 5.0 km
Do, 05.12. 12:00 91% 0.3 km
Do, 05.12. 11:30 85% 7 km
Ortszeit Niederschlagsmenge Niederschlagsart
Do, 05.12. 13:00 0.0 l/m2 in 6 Std. -
Do, 05.12. 7:00 0.0 l/m2 in 12 Std. -
Do, 05.12. 1:00 0.0 l/m2 in 6 Std. -
Mi, 04.12. 19:00 0.0 l/m2 in 12 Std. -
Mi, 04.12. 13:00 0.0 l/m2 in 6 Std. -
Mi, 04.12. 7:00 0.0 l/m2 in 12 Std. -
Mi, 04.12. 1:00 0.0 l/m2 in 6 Std. -
Di, 03.12. 19:00 0.1 l/m2 in 12 Std. -
Ortszeit Niederschlagsmenge Niederschlagsart
Do, 05.12. 15:00 0.0 l/m2 in 1 Std. -
Do, 05.12. 14:50 keine Meldung -
Do, 05.12. 14:40 keine Meldung -
Do, 05.12. 14:30 0.0 l/m2 in 1 Std. -
Do, 05.12. 14:20 keine Meldung -
Do, 05.12. 14:10 keine Meldung -
Do, 05.12. 14:00 0.0 l/m2 in 1 Std. -
Do, 05.12. 13:30 0.0 l/m2 in 1 Std. -
Do, 05.12. 13:00 0.0 l/m2 in 1 Std. -
Do, 05.12. 12:30 0.0 l/m2 in 1 Std. -
Do, 05.12. 12:00 0.0 l/m2 in 1 Std. -
Do, 05.12. 11:30 0.0 l/m2 in 1 Std. -
Ortszeit Stärke Spitze Richtung
km/h Bft. km/h Grad Sektor
Do, 05.12. 13:00 4 1 11 200° S
Do, 05.12. 7:00 4 1 11 40° NO
Do, 05.12. 1:00 7 2 18 120° SO
Mi, 04.12. 19:00 13 3 33 60° NO
Mi, 04.12. 13:00 20 4 31 50° NO
Mi, 04.12. 7:00 19 3 28 50° NO
Mi, 04.12. 1:00 18 3 29 50° NO
Di, 03.12. 19:00 15 3 19 40° NO
Ortszeit Stärke Spitze Richtung
km/h Bft. km/h Grad Sektor
Do, 05.12. 15:00 6 1 11 240° SW
Do, 05.12. 14:50 6 1 - 240° SW
Do, 05.12. 14:40 7 2 - 230° SW
Do, 05.12. 14:30 7 2 11 230° SW
Do, 05.12. 14:20 7 2 - 230° SW
Do, 05.12. 14:10 7 2 - 220° SW
Do, 05.12. 14:00 7 2 11 230° SW
Do, 05.12. 13:30 7 2 11 210° SW
Do, 05.12. 13:00 4 1 11 200° S
Do, 05.12. 12:30 6 1 9 230° SW
Do, 05.12. 12:00 4 1 7 360° N
Do, 05.12. 11:30 4 1 7 230° SW
Ortszeit Untergrenze Bedeckung Gattung
total tief tief mittel hoch
Do, 05.12. 13:00 30 m 8/8 8/8 - - -
Do, 05.12. 7:00 - 0/8 0/8 - - -
Do, 05.12. 1:00 - 0/8 0/8 - - -
Mi, 04.12. 19:00 - 0/8 0/8 - - -
Mi, 04.12. 13:00 - 0/8 0/8 - - -
Mi, 04.12. 7:00 - 0/8 0/8 - - -
Mi, 04.12. 1:00 <30 m 6/8 0/8 - - -
Di, 03.12. 19:00 - 0/8 0/8 - - -
Ortszeit Bedeckungsgrad in Achtel und Wolkenuntergrenze
Do, 05.12. 15:00 keine Wolken
Do, 05.12. 14:50 keine Wolken
Do, 05.12. 14:40 keine Wolken
Do, 05.12. 14:30 keine Wolken
Do, 05.12. 14:20 keine Wolken
Do, 05.12. 14:10 keine Wolken
Do, 05.12. 14:00 3(<30m)
Do, 05.12. 13:30 8(<30m)
Do, 05.12. 13:00 8(30m)
Do, 05.12. 12:30 6(30m) 6(120m)
Do, 05.12. 12:00 5(<30m) 7(120m)
Do, 05.12. 11:30 1(<30m)
Ortszeit Luftdruck NN (hPa) Tendenz (hPa in 3 Std.)
Do, 05.12. 13:00 1025 + 0,2
Do, 05.12. 7:00 1023 + 0,7
Do, 05.12. 1:00 1022 + 0,2
Mi, 04.12. 19:00 1022 + 1,2
Mi, 04.12. 13:00 1021 - 2,2
Mi, 04.12. 7:00 1024 - 0,5
Mi, 04.12. 1:00 1026 - 1,2
Di, 03.12. 19:00 1028 - 0,2
Ortszeit Luftdruck NN (hPa) Tendenz (hPa in 3 Std.)
Do, 05.12. 15:00 1024 - 0,8
Do, 05.12. 14:50 1024 keine Meldung
Do, 05.12. 14:40 1024 keine Meldung
Do, 05.12. 14:30 1024 - 0,9
Do, 05.12. 14:20 1024 keine Meldung
Do, 05.12. 14:10 1024 keine Meldung
Do, 05.12. 14:00 1024 - 0,5
Do, 05.12. 13:30 1024 - 0,2
Do, 05.12. 13:00 1025 + 0,2
Do, 05.12. 12:30 1025 + 0,5
Do, 05.12. 12:00 1025 + 1,1
Do, 05.12. 11:30 1025 + 1,3
Ortszeit Schneehöhe (cm)
Do, 05.12. 13:00 0
Do, 05.12. 7:00 0
Do, 05.12. 1:00 0
Mi, 04.12. 19:00 0
Mi, 04.12. 13:00 0
Mi, 04.12. 7:00 0
Mi, 04.12. 1:00 0
Di, 03.12. 19:00 0
Ortszeit Schneehöhe (cm)
Do, 05.12. 15:00 0
Do, 05.12. 14:50 0
Do, 05.12. 14:40 0
Do, 05.12. 14:30 0
Do, 05.12. 14:20 0
Do, 05.12. 14:10 0
Do, 05.12. 14:00 0
Do, 05.12. 13:30 0
Do, 05.12. 13:00 0
Do, 05.12. 12:30 0
Do, 05.12. 12:00 0
Do, 05.12. 11:30 0
Link zu dieser Seite / Seite empfehlen

Das Wetter in ...